Time;durP1;ratioP1;P1;durP2;ratioP2;P2;SDS_P1;SDS_P2;PMS_P1;PMS_P2;Temp;Humidity;BMP_temperature;BMP_pressure;BME280_temperature;BME280_humidity;BME280_pressure;Samples;Min_cycle;Max_cycle;Signal;HPM_P1;HPM_P2
2023/06/14 00:00:07;;;;;;;6.90;2.42;;;17.10;79.20;;;;;;5077714;28;20041;-53
2023/06/14 00:02:33;;;;;;;6.35;2.33;;;17.10;79.70;;;;;;5077073;28;20044;-53
2023/06/14 00:04:59;;;;;;;7.18;2.47;;;17.00;80.00;;;;;;5086897;28;20042;-53
2023/06/14 00:07:44;;;;;;;8.00;2.33;;;17.00;80.40;;;;;;5078594;28;20063;-57
2023/06/14 00:10:11;;;;;;;4.50;2.78;;;16.90;80.00;;;;;;5080360;28;20063;-51
2023/06/14 00:12:37;;;;;;;3.45;2.10;;;16.90;80.40;;;;;;5080055;28;20471;-55
2023/06/14 00:15:05;;;;;;;5.40;2.35;;;16.90;81.10;;;;;;5077804;28;20068;-55
2023/06/14 00:17:31;;;;;;;;;;;16.80;81.40;;;;;;5067675;28;20109;-52
2023/06/14 00:19:57;;;;;;;6.78;2.20;;;16.80;81.40;;;;;;5073374;28;19920;-55
2023/06/14 00:22:24;;;;;;;8.18;2.50;;;16.80;82.20;;;;;;5074012;28;20137;-57
2023/06/14 00:24:53;;;;;;;8.45;2.55;;;16.70;81.70;;;;;;5089297;28;20097;-55
2023/06/14 00:27:18;;;;;;;5.50;2.53;;;16.70;81.90;;;;;;5078617;28;20036;-53
2023/06/14 00:29:44;;;;;;;3.88;2.15;;;16.60;82.50;;;;;;5075254;28;20042;-55
2023/06/14 00:32:10;;;;;;;6.40;2.38;;;16.60;82.80;;;;;;5081176;28;20037;-52
2023/06/14 00:34:35;;;;;;;6.50;2.30;;;16.60;83.10;;;;;;5067628;28;20045;-51
2023/06/14 00:37:01;;;;;;;3.58;2.22;;;16.50;83.00;;;;;;5077870;28;20052;-56
2023/06/14 00:39:27;;;;;;;7.60;2.70;;;16.50;83.60;;;;;;5077059;28;20040;-56
2023/06/14 00:41:53;;;;;;;8.90;2.50;;;16.50;83.60;;;;;;5078191;28;20036;-56
2023/06/14 00:44:18;;;;;;;5.63;2.40;;;16.40;84.20;;;;;;5085075;28;20036;-56
2023/06/14 00:46:47;;;;;;;4.85;2.55;;;16.40;84.70;;;;;;5079460;28;20041;-55
2023/06/14 00:49:15;;;;;;;3.28;2.40;;;16.40;84.90;;;;;;5074409;28;20074;-54
2023/06/14 00:51:42;;;;;;;4.32;2.03;;;16.40;85.20;;;;;;5084858;28;20043;-54
2023/06/14 00:54:08;;;;;;;3.55;2.05;;;16.30;85.40;;;;;;5081776;28;20064;-55
2023/06/14 00:56:36;;;;;;;5.32;2.30;;;16.30;85.90;;;;;;5074665;28;20040;-54
2023/06/14 00:59:02;;;;;;;4.45;2.38;;;16.30;86.30;;;;;;5072750;28;20044;-56
2023/06/14 01:01:32;;;;;;;4.85;2.50;;;16.20;86.60;;;;;;5080623;28;20059;-54
2023/06/14 01:03:58;;;;;;;6.45;2.22;;;16.20;87.40;;;;;;5069933;28;20048;-56
2023/06/14 01:06:41;;;;;;;5.28;2.55;;;16.10;87.90;;;;;;5075301;28;20459;-53
2023/06/14 01:09:38;;;;;;;4.50;2.35;;;16.10;87.90;;;;;;5080790;28;20043;-54
2023/06/14 01:12:04;;;;;;;;;;;16.00;88.20;;;;;;5079357;28;20060;-57
2023/06/14 01:14:32;;;;;;;6.40;2.30;;;16.00;88.60;;;;;;5071670;28;19920;-56
2023/06/14 01:17:00;;;;;;;8.05;2.47;;;16.00;88.70;;;;;;5072109;28;20090;-56
2023/06/14 01:19:27;;;;;;;5.63;2.22;;;15.90;90.00;;;;;;5080264;28;20044;-53
2023/06/14 01:21:57;;;;;;;2.72;2.20;;;15.80;90.00;;;;;;5076155;28;20047;-53
2023/06/14 01:24:28;;;;;;;5.07;2.38;;;15.80;90.20;;;;;;5086117;28;20048;-55
2023/06/14 01:26:58;;;;;;;8.20;2.50;;;15.70;90.70;;;;;;5083869;28;20097;-56
2023/06/14 01:29:25;;;;;;;4.97;2.47;;;15.70;90.90;;;;;;5070976;28;20484;-55
2023/06/14 01:31:51;;;;;;;4.15;2.08;;;15.70;91.50;;;;;;5076661;28;20076;-52
2023/06/14 01:34:16;;;;;;;7.80;2.25;;;15.60;91.60;;;;;;5077142;28;20035;-54
2023/06/14 01:36:44;;;;;;;5.60;2.15;;;;;;;;;;5081146;28;20036;-52
2023/06/14 01:39:17;;;;;;;5.60;2.30;;;15.50;91.50;;;;;;5085142;28;20068;-54
2023/06/14 01:41:45;;;;;;;2.85;2.30;;;15.50;92.40;;;;;;5081301;28;20135;-53
2023/06/14 01:44:13;;;;;;;8.13;2.30;;;15.40;92.70;;;;;;5077592;28;20048;-54
2023/06/14 01:46:41;;;;;;;5.30;2.30;;;15.40;93.20;;;;;;5061500;28;20091;-51
2023/06/14 01:49:08;;;;;;;8.02;2.45;;;15.40;93.40;;;;;;5069644;28;20051;-56
2023/06/14 01:51:33;;;;;;;5.57;2.40;;;15.30;93.60;;;;;;5082696;28;20048;-56
2023/06/14 01:54:00;;;;;;;6.57;2.58;;;15.20;94.20;;;;;;5079367;28;20081;-51
2023/06/14 01:56:26;;;;;;;5.28;2.13;;;15.20;94.80;;;;;;5074592;28;20518;-53
2023/06/14 01:58:52;;;;;;;6.05;2.50;;;15.10;95.20;;;;;;5084669;28;20162;-54
2023/06/14 02:01:18;;;;;;;4.80;2.42;;;15.10;95.60;;;;;;5098091;22;20513;-55
2023/06/14 02:03:44;;;;;;;4.60;2.65;;;15.10;96.20;;;;;;5084694;28;20040;-53
2023/06/14 02:06:10;;;;;;;6.57;2.22;;;15.00;96.70;;;;;;5087976;28;20040;-53
2023/06/14 02:08:36;;;;;;;4.72;2.38;;;15.00;97.60;;;;;;5083863;28;20131;-54
2023/06/14 02:11:02;;;;;;;7.07;2.70;;;15.00;98.00;;;;;;5083203;28;20090;-55
2023/06/14 02:13:27;;;;;;;6.50;3.00;;;14.90;98.60;;;;;;5088020;28;20035;-51
2023/06/14 02:15:54;;;;;;;6.40;2.70;;;14.90;99.30;;;;;;5084395;28;20048;-55
2023/06/14 02:18:21;;;;;;;7.05;2.28;;;14.90;99.90;;;;;;5088551;28;20481;-55
2023/06/14 02:20:47;;;;;;;4.90;2.33;;;14.80;99.90;;;;;;5085898;28;20039;-52
2023/06/14 02:23:12;;;;;;;4.63;2.60;;;14.80;99.90;;;;;;5080024;28;20628;-53
2023/06/14 02:25:39;;;;;;;5.10;2.03;;;14.70;99.90;;;;;;5085973;28;20163;-54
2023/06/14 02:28:05;;;;;;;4.70;2.17;;;14.70;99.90;;;;;;5083299;28;20048;-52
2023/06/14 02:30:30;;;;;;;4.63;2.47;;;14.70;99.90;;;;;;5089741;28;20114;-53
2023/06/14 02:32:56;;;;;;;4.00;2.58;;;14.70;99.90;;;;;;5086097;28;20046;-53
2023/06/14 02:35:26;;;;;;;5.40;2.25;;;14.60;99.90;;;;;;5085941;28;20060;-51
2023/06/14 02:37:52;;;;;;;3.13;2.30;;;14.60;99.90;;;;;;5079479;28;20051;-53
2023/06/14 02:40:18;;;;;;;4.55;2.85;;;14.50;99.90;;;;;;5088663;28;20040;-51
2023/06/14 02:42:44;;;;;;;6.03;2.20;;;14.50;99.90;;;;;;5089274;28;20133;-51
2023/06/14 02:45:10;;;;;;;5.13;2.40;;;14.50;99.90;;;;;;5130646;22;20051;-45
2023/06/14 02:47:35;;;;;;;6.28;2.65;;;14.40;99.90;;;;;;5112024;28;20475;-46
2023/06/14 02:50:02;;;;;;;6.43;2.53;;;14.50;99.90;;;;;;5105461;28;20036;-46
2023/06/14 02:52:28;;;;;;;3.60;2.45;;;14.40;99.90;;;;;;5105421;28;20055;-47
2023/06/14 02:54:54;;;;;;;5.72;2.42;;;14.40;99.90;;;;;;5110966;27;20051;-45
2023/06/14 02:57:20;;;;;;;5.10;2.42;;;14.30;99.90;;;;;;5107756;28;20055;-46
2023/06/14 02:59:46;;;;;;;7.78;2.60;;;14.30;99.90;;;;;;5111040;28;20484;-46
2023/06/14 03:02:11;;;;;;;4.32;2.70;;;14.30;99.90;;;;;;5111901;28;20036;-46
2023/06/14 03:04:37;;;;;;;6.30;2.67;;;14.30;99.90;;;;;;5110390;28;20090;-46
2023/06/14 03:07:09;;;;;;;5.60;2.50;;;14.30;99.90;;;;;;5111750;28;20052;-46
2023/06/14 03:09:38;;;;;;;5.82;2.58;;;14.20;99.90;;;;;;5095910;28;20055;-47
2023/06/14 03:12:06;;;;;;;5.55;2.40;;;14.20;99.90;;;;;;5104653;28;20172;-46
2023/06/14 03:14:32;;;;;;;6.07;2.90;;;14.20;99.90;;;;;;5107596;28;20071;-50
2023/06/14 03:16:58;;;;;;;4.03;2.70;;;14.20;99.90;;;;;;5105469;28;20120;-48
2023/06/14 03:19:25;;;;;;;3.90;2.90;;;14.20;99.90;;;;;;5104733;28;20141;-47
2023/06/14 03:21:52;;;;;;;3.83;2.53;;;14.20;99.90;;;;;;5103415;28;20580;-46
2023/06/14 03:24:17;;;;;;;4.05;2.47;;;14.20;99.90;;;;;;5087867;28;20081;-45
2023/06/14 03:26:43;;;;;;;6.43;2.90;;;14.20;99.90;;;;;;5110256;28;20441;-46
2023/06/14 03:29:09;;;;;;;6.65;2.80;;;14.10;99.90;;;;;;5109684;27;20606;-48
2023/06/14 03:31:34;;;;;;;6.85;2.88;;;14.10;99.90;;;;;;5109878;28;20119;-49
2023/06/14 03:34:01;;;;;;;3.10;2.50;;;14.20;99.90;;;;;;5109013;28;20075;-46
2023/06/14 03:36:27;;;;;;;7.32;3.22;;;14.10;99.90;;;;;;5107373;27;20142;-46
2023/06/14 03:38:54;;;;;;;5.78;2.70;;;14.20;99.90;;;;;;5112207;28;20165;-49
2023/06/14 03:41:20;;;;;;;5.10;2.65;;;14.20;99.90;;;;;;5091318;28;20047;-45
2023/06/14 03:43:46;;;;;;;3.58;2.70;;;14.20;99.90;;;;;;5100816;28;20119;-46
2023/06/14 03:46:11;;;;;;;3.67;2.70;;;14.20;99.90;;;;;;5069514;28;20202;-46
2023/06/14 03:48:38;;;;;;;5.57;2.70;;;14.20;99.90;;;;;;5063359;28;20048;-45
2023/06/14 03:51:04;;;;;;;3.30;2.47;;;14.20;99.90;;;;;;5061093;28;20446;-46
2023/06/14 03:53:30;;;;;;;8.93;2.90;;;14.20;99.90;;;;;;5071237;28;20048;-47
2023/06/14 03:55:57;;;;;;;7.47;3.10;;;14.30;99.90;;;;;;5071944;28;20404;-48
2023/06/14 03:58:22;;;;;;;8.70;3.00;;;14.30;99.90;;;;;;5070858;28;20041;-45
2023/06/14 04:00:48;;;;;;;4.40;2.83;;;14.30;99.90;;;;;;5068299;28;20044;-46
2023/06/14 04:03:15;;;;;;;5.78;2.90;;;14.30;99.90;;;;;;5061849;28;20066;-47
2023/06/14 04:05:42;;;;;;;6.45;3.10;;;14.30;99.90;;;;;;5062989;28;20056;-46
2023/06/14 04:08:09;;;;;;;6.93;2.80;;;14.30;99.90;;;;;;5059808;28;22055;-45
2023/06/14 04:10:35;;;;;;;5.80;3.13;;;14.40;99.90;;;;;;5067862;28;20052;-46
2023/06/14 04:13:00;;;;;;;6.20;3.13;;;14.40;99.90;;;;;;5070140;28;20044;-46
2023/06/14 04:15:28;;;;;;;4.30;2.80;;;14.40;99.90;;;;;;5063936;28;20181;-46
2023/06/14 04:17:57;;;;;;;4.88;2.80;;;14.40;99.90;;;;;;5071689;28;20587;-47
2023/06/14 04:20:24;;;;;;;7.82;3.28;;;14.50;99.90;;;;;;5070512;28;20123;-46
2023/06/14 04:22:50;;;;;;;6.68;3.10;;;14.50;99.90;;;;;;5071618;28;20409;-47
2023/06/14 04:25:16;;;;;;;5.80;2.90;;;14.60;99.90;;;;;;5063274;28;20039;-46
2023/06/14 04:27:43;;;;;;;4.40;2.92;;;14.60;99.90;;;;;;5072016;28;20044;-46
2023/06/14 04:30:09;;;;;;;5.63;3.05;;;14.70;99.90;;;;;;5070571;28;20128;-46
2023/06/14 04:32:38;;;;;;;5.40;3.20;;;14.80;99.90;;;;;;5064204;28;20794;-46
2023/06/14 04:35:08;;;;;;;3.50;2.83;;;15.00;99.90;;;;;;5069522;28;20044;-46
2023/06/14 04:37:34;;;;;;;6.68;2.80;;;16.40;99.90;;;;;;5069372;28;20580;-46
2023/06/14 04:40:00;;;;;;;4.75;2.67;;;18.10;99.90;;;;;;5070150;28;20068;-47
2023/06/14 04:42:29;;;;;;;5.57;2.78;;;18.50;99.90;;;;;;5062686;28;20529;-47
2023/06/14 04:44:55;;;;;;;6.05;2.75;;;19.40;99.90;;;;;;5063880;28;20067;-46
2023/06/14 04:47:21;;;;;;;6.60;3.05;;;19.70;99.90;;;;;;5070410;28;20048;-46
2023/06/14 04:49:47;;;;;;;3.55;2.65;;;20.30;99.90;;;;;;5063990;28;20895;-47
2023/06/14 04:52:13;;;;;;;5.00;3.03;;;21.00;99.90;;;;;;5068067;28;20035;-47
2023/06/14 04:54:42;;;;;;;6.88;3.00;;;21.60;98.40;;;;;;5068218;28;20509;-47
2023/06/14 04:57:13;;;;;;;2.90;2.60;;;22.50;97.50;;;;;;5068755;28;20185;-49
2023/06/14 04:59:39;;;;;;;3.03;2.58;;;22.40;95.20;;;;;;5067806;28;20055;-46
2023/06/14 05:02:05;;;;;;;3.63;3.17;;;22.50;95.10;;;;;;5064714;28;20036;-48
2023/06/14 05:04:31;;;;;;;4.95;2.70;;;23.10;94.20;;;;;;5064870;28;20540;-47
2023/06/14 05:06:56;;;;;;;7.22;2.72;;;23.10;94.10;;;;;;5069476;28;20068;-50
2023/06/14 05:09:22;;;;;;;4.28;2.75;;;23.50;93.70;;;;;;5059756;28;20036;-47
2023/06/14 05:11:47;;;;;;;11.43;3.00;;;23.60;92.20;;;;;;5069277;28;20116;-48
2023/06/14 05:14:14;;;;;;;5.80;2.72;;;23.60;92.30;;;;;;5066445;28;20482;-46
2023/06/14 05:16:40;;;;;;;5.30;2.58;;;23.80;92.40;;;;;;5069099;28;20037;-46
2023/06/14 05:19:06;;;;;;;6.50;3.03;;;24.20;92.00;;;;;;5065188;28;20099;-48
2023/06/14 05:21:33;;;;;;;4.45;2.60;;;24.80;90.60;;;;;;5066526;28;20036;-47
2023/06/14 05:23:59;;;;;;;4.25;2.63;;;24.60;90.00;;;;;;5047670;28;20048;-46
2023/06/14 05:26:28;;;;;;;3.13;2.45;;;24.90;89.10;;;;;;5062596;28;20032;-47
2023/06/14 05:28:56;;;;;;;3.42;2.55;;;25.30;89.90;;;;;;5068552;28;20084;-47
2023/06/14 05:31:25;;;;;;;3.17;2.42;;;25.00;87.00;;;;;;5070419;28;20047;-46
2023/06/14 05:33:51;;;;;;;3.83;2.45;;;25.40;85.80;;;;;;5066831;28;20043;-47
2023/06/14 05:36:17;;;;;;;6.60;2.90;;;24.80;84.50;;;;;;5061307;28;20033;-47
2023/06/14 05:38:43;;;;;;;3.88;2.45;;;25.20;85.00;;;;;;5067841;28;20037;-47
2023/06/14 05:41:09;;;;;;;5.22;2.53;;;25.40;84.10;;;;;;5060116;28;20036;-47
2023/06/14 05:43:35;;;;;;;4.20;2.40;;;25.80;84.80;;;;;;5068076;28;20167;-48
2023/06/14 05:46:00;;;;;;;5.72;2.72;;;25.80;82.80;;;;;;5067923;28;20139;-47
2023/06/14 05:48:26;;;;;;;4.30;2.78;;;25.90;82.40;;;;;;5070841;28;20519;-47
2023/06/14 05:50:51;;;;;;;5.07;2.40;;;25.60;82.40;;;;;;5092631;22;20052;-57
2023/06/14 05:53:17;;;;;;;3.03;2.38;;;25.60;81.80;;;;;;5090468;28;20093;-55
2023/06/14 05:55:43;;;;;;;5.68;2.50;;;26.00;81.20;;;;;;5084251;28;20494;-52
2023/06/14 05:58:08;;;;;;;2.72;2.35;;;25.70;81.40;;;;;;5089636;28;20036;-55
2023/06/14 06:00:34;;;;;;;3.58;2.20;;;25.80;80.80;;;;;;5089176;28;20094;-52
2023/06/14 06:03:00;;;;;;;3.58;2.40;;;25.80;80.50;;;;;;5090789;28;20047;-56
2023/06/14 06:05:26;;;;;;;3.08;2.28;;;25.80;79.60;;;;;;5066817;28;20165;-56
2023/06/14 06:07:52;;;;;;;4.43;2.22;;;26.20;79.40;;;;;;5088711;28;20044;-54
2023/06/14 06:10:17;;;;;;;2.20;1.95;;;25.80;79.50;;;;;;5088940;28;20048;-53
2023/06/14 06:12:43;;;;;;;6.88;2.00;;;26.40;80.10;;;;;;5089203;28;20036;-53
2023/06/14 06:15:11;;;;;;;2.95;2.25;;;26.90;80.00;;;;;;5087714;28;20469;-56
2023/06/14 06:17:38;;;;;;;4.03;2.20;;;26.70;78.70;;;;;;5082360;28;20047;-55
2023/06/14 06:20:06;;;;;;;4.30;2.17;;;26.80;76.60;;;;;;5086179;28;20774;-55
2023/06/14 06:22:31;;;;;;;3.67;1.85;;;26.40;76.40;;;;;;5089517;28;20044;-54
2023/06/14 06:24:57;;;;;;;6.93;2.10;;;27.00;76.80;;;;;;5086198;28;20055;-53
2023/06/14 06:27:22;;;;;;;5.28;2.10;;;26.70;75.60;;;;;;5090576;28;20052;-56
2023/06/14 06:29:48;;;;;;;4.00;1.98;;;26.70;75.10;;;;;;5088402;28;20036;-53
2023/06/14 06:32:15;;;;;;;5.47;2.17;;;26.90;76.40;;;;;;5091987;28;20036;-57
2023/06/14 06:34:41;;;;;;;5.95;2.30;;;27.30;74.90;;;;;;5097887;28;20055;-52
2023/06/14 06:37:07;;;;;;;3.80;1.77;;;26.70;73.50;;;;;;5097238;28;20055;-55
2023/06/14 06:39:33;;;;;;;5.47;2.00;;;26.50;74.50;;;;;;5092257;28;20047;-54
2023/06/14 06:41:58;;;;;;;2.58;1.85;;;26.80;73.70;;;;;;5092134;28;20036;-54
2023/06/14 06:44:24;;;;;;;1.70;1.60;;;26.90;73.80;;;;;;5092887;28;20048;-57
2023/06/14 06:46:49;;;;;;;3.40;1.83;;;26.90;74.40;;;;;;5091410;28;20044;-54
2023/06/14 06:49:15;;;;;;;4.53;2.38;;;26.70;73.60;;;;;;5088710;28;20035;-56
2023/06/14 06:51:42;;;;;;;4.50;2.40;;;26.10;73.50;;;;;;5089919;28;20052;-56
2023/06/14 06:54:08;;;;;;;;;;;26.80;73.60;;;;;;5091611;28;20044;-56
2023/06/14 06:56:34;;;;;;;4.70;1.87;;;27.10;74.10;;;;;;5094876;28;19943;-56
2023/06/14 06:59:00;;;;;;;3.47;2.07;;;27.20;73.80;;;;;;5089930;28;20043;-58
2023/06/14 07:01:26;;;;;;;3.30;1.90;;;27.10;73.80;;;;;;5082208;28;20093;-57
2023/06/14 07:03:52;;;;;;;5.47;1.73;;;27.00;72.70;;;;;;5086509;28;20036;-58
2023/06/14 07:06:18;;;;;;;3.38;1.98;;;26.70;72.70;;;;;;5088901;28;20048;-57
2023/06/14 07:08:44;;;;;;;4.53;2.03;;;26.40;73.30;;;;;;5088930;28;20083;-57
2023/06/14 07:11:10;;;;;;;2.38;2.05;;;26.90;73.80;;;;;;5086650;28;20040;-54
2023/06/14 07:13:35;;;;;;;5.18;2.08;;;27.10;73.00;;;;;;5088025;28;20036;-52
2023/06/14 07:16:01;;;;;;;3.17;1.70;;;26.60;73.10;;;;;;5089002;28;20469;-55
2023/06/14 07:18:27;;;;;;;6.65;1.80;;;26.10;73.00;;;;;;5088530;28;20036;-54
2023/06/14 07:20:54;;;;;;;4.85;2.10;;;26.50;73.30;;;;;;5090608;28;20044;-58
2023/06/14 07:23:20;;;;;;;4.80;1.90;;;26.00;72.90;;;;;;5084287;28;20131;-55
2023/06/14 07:25:46;;;;;;;6.10;2.07;;;25.50;73.20;;;;;;5084045;28;20312;-53
2023/06/14 07:28:11;;;;;;;3.17;1.80;;;25.20;73.80;;;;;;5085786;28;20298;-58
2023/06/14 07:30:37;;;;;;;5.32;2.00;;;25.40;74.20;;;;;;5084587;28;20036;-55
2023/06/14 07:33:03;;;;;;;4.68;1.90;;;25.40;73.10;;;;;;5084596;28;20036;-57
2023/06/14 07:35:28;;;;;;;2.88;2.00;;;24.80;72.90;;;;;;5081197;28;20085;-57
2023/06/14 07:37:54;;;;;;;4.75;1.70;;;24.80;72.70;;;;;;5089252;28;20078;-58
2023/06/14 07:42:55;;;;;;;3.20;1.95;;;24.80;73.90;;;;;;4936502;22;20388;-56
2023/06/14 07:45:20;;;;;;;2.10;1.67;;;24.60;74.40;;;;;;5088445;28;20036;-57
2023/06/14 07:47:46;;;;;;;3.95;1.85;;;;;;;;;;5090366;28;20040;-56
2023/06/14 07:50:13;;;;;;;3.20;2.00;;;24.00;72.90;;;;;;5085258;28;20037;-55
2023/06/14 07:52:39;;;;;;;6.27;2.10;;;23.60;74.70;;;;;;5071530;28;20114;-56
2023/06/14 07:55:05;;;;;;;3.00;1.80;;;23.50;75.40;;;;;;5070318;28;20382;-55
2023/06/14 07:57:31;;;;;;;4.75;1.60;;;23.50;75.20;;;;;;5072472;28;20056;-58
2023/06/14 07:59:56;;;;;;;4.85;1.70;;;23.40;75.70;;;;;;5071312;28;20044;-54
2023/06/14 08:02:22;;;;;;;3.53;1.63;;;23.70;75.80;;;;;;5060581;28;20056;-53
2023/06/14 08:04:48;;;;;;;2.22;1.50;;;23.40;75.70;;;;;;5060620;28;20037;-56
2023/06/14 08:07:14;;;;;;;1.58;1.48;;;23.60;76.00;;;;;;5070417;28;20047;-58
2023/06/14 08:09:40;;;;;;;3.42;1.52;;;23.50;74.40;;;;;;5068559;28;20051;-55
2023/06/14 08:12:07;;;;;;;3.47;1.50;;;23.50;75.30;;;;;;5068972;28;20040;-57
2023/06/14 08:14:33;;;;;;;2.88;1.90;;;23.50;75.00;;;;;;5070181;28;20040;-58
2023/06/14 08:16:59;;;;;;;5.00;1.67;;;23.30;75.00;;;;;;5066609;28;20047;-53
2023/06/14 08:19:25;;;;;;;3.08;1.88;;;23.30;74.50;;;;;;5053577;28;20048;-52
2023/06/14 08:21:51;;;;;;;3.05;1.52;;;23.30;74.40;;;;;;5054654;28;20383;-53
2023/06/14 08:24:17;;;;;;;1.95;1.50;;;23.30;74.90;;;;;;5051495;28;20474;-57
2023/06/14 08:26:43;;;;;;;3.80;1.63;;;23.20;74.60;;;;;;5068305;28;20044;-56
2023/06/14 08:29:08;;;;;;;2.25;1.52;;;23.20;74.10;;;;;;5069153;28;20493;-58
2023/06/14 08:31:34;;;;;;;1.95;1.23;;;23.20;74.00;;;;;;5069870;28;20032;-56
2023/06/14 08:34:00;;;;;;;2.97;1.27;;;23.30;73.00;;;;;;5059385;28;20064;-57
2023/06/14 08:36:25;;;;;;;3.40;1.67;;;23.60;73.10;;;;;;5076188;28;20064;-53
2023/06/14 08:38:51;;;;;;;3.22;1.60;;;23.60;73.60;;;;;;5075760;28;20032;-54
2023/06/14 08:41:24;;;;;;;3.47;1.40;;;23.80;72.90;;;;;;5062339;28;20119;-56
2023/06/14 08:43:50;;;;;;;2.17;1.65;;;23.90;73.30;;;;;;5044910;28;20056;-57
2023/06/14 08:46:19;;;;;;;1.60;1.40;;;23.80;72.60;;;;;;5041659;28;20544;-54
2023/06/14 08:48:48;;;;;;;2.50;1.45;;;23.80;73.70;;;;;;5042802;28;20140;-56
2023/06/14 08:51:18;;;;;;;3.58;1.40;;;23.60;72.90;;;;;;5047092;28;20043;-55
2023/06/14 08:53:44;;;;;;;3.17;1.58;;;23.60;72.60;;;;;;5043710;28;20045;-53
2023/06/14 08:56:13;;;;;;;3.05;1.38;;;23.70;73.20;;;;;;5047079;28;21783;-57
2023/06/14 08:58:49;;;;;;;3.00;1.65;;;23.70;72.50;;;;;;5046569;28;20087;-53
2023/06/14 09:01:17;;;;;;;1.38;1.20;;;23.60;72.30;;;;;;5040497;28;20055;-56
2023/06/14 09:03:43;;;;;;;2.08;1.60;;;23.50;72.40;;;;;;5049694;28;20052;-56
2023/06/14 09:06:13;;;;;;;2.63;1.40;;;23.80;73.20;;;;;;5047830;28;20049;-56
2023/06/14 09:08:48;;;;;;;2.75;1.30;;;24.20;74.20;;;;;;5053019;28;20498;-54
2023/06/14 09:11:15;;;;;;;2.25;1.48;;;24.10;72.60;;;;;;5047201;28;20384;-56
2023/06/14 09:13:41;;;;;;;;;;;23.90;72.20;;;;;;5052506;28;20033;-56
2023/06/14 09:16:07;;;;;;;2.45;1.40;;;23.70;72.00;;;;;;5050194;28;19966;-59
2023/06/14 09:18:35;;;;;;;4.53;1.77;;;23.80;72.40;;;;;;5047210;28;20624;-57
2023/06/14 09:21:00;;;;;;;4.45;1.70;;;23.80;73.00;;;;;;5047329;28;20387;-59
2023/06/14 09:23:26;;;;;;;2.70;1.45;;;24.00;72.30;;;;;;5051350;28;20052;-57
2023/06/14 09:25:51;;;;;;;4.35;1.60;;;23.90;72.30;;;;;;5054352;28;20037;-57
2023/06/14 09:28:17;;;;;;;4.63;1.60;;;23.80;72.80;;;;;;5051236;28;20124;-57
2023/06/14 09:30:43;;;;;;;2.72;1.40;;;24.00;72.50;;;;;;5054382;28;20471;-55
2023/06/14 09:33:08;;;;;;;4.00;1.58;;;24.20;72.60;;;;;;5049281;28;20041;-57
2023/06/14 09:35:34;;;;;;;1.83;1.40;;;24.10;71.60;;;;;;5052357;28;20041;-56
2023/06/14 09:38:00;;;;;;;1.50;1.40;;;24.00;71.50;;;;;;5051970;28;20041;-53
2023/06/14 09:40:26;;;;;;;2.25;1.38;;;24.20;71.20;;;;;;5048798;28;20076;-56
2023/06/14 09:42:52;;;;;;;2.65;1.58;;;24.20;71.40;;;;;;5045785;28;21321;-53
2023/06/14 09:45:21;;;;;;;1.48;1.38;;;24.20;71.00;;;;;;5053319;28;20446;-54
2023/06/14 09:47:49;;;;;;;3.20;1.60;;;24.20;71.30;;;;;;5032681;28;20072;-54
2023/06/14 09:50:15;;;;;;;2.17;1.80;;;24.60;72.90;;;;;;5055141;28;20029;-57
2023/06/14 09:52:44;;;;;;;2.42;1.30;;;24.60;71.10;;;;;;5049246;28;20481;-57
2023/06/14 09:55:13;;;;;;;1.80;1.70;;;24.40;69.90;;;;;;5054083;28;20045;-54
2023/06/14 09:57:41;;;;;;;3.08;1.50;;;24.50;69.50;;;;;;5069138;28;20363;-56
2023/06/14 10:00:11;;;;;;;3.90;1.60;;;24.50;71.10;;;;;;5076469;28;20094;-60
2023/06/14 10:02:38;;;;;;;3.85;1.65;;;24.80;70.70;;;;;;5051279;28;20037;-56
2023/06/14 10:05:11;;;;;;;3.35;1.75;;;24.60;70.20;;;;;;5054663;28;20172;-54
2023/06/14 10:07:52;;;;;;;2.72;1.90;;;24.70;70.80;;;;;;5029407;28;20041;-56
2023/06/14 10:10:18;;;;;;;2.50;1.50;;;25.00;70.40;;;;;;5053602;28;20532;-51
2023/06/14 10:12:44;;;;;;;2.08;1.70;;;25.00;70.40;;;;;;5057784;28;20462;-54
2023/06/14 10:15:29;;;;;;;3.55;1.50;;;25.20;71.10;;;;;;5054606;28;20048;-54
2023/06/14 10:18:15;;;;;;;2.13;1.40;;;25.10;70.50;;;;;;5049517;28;20043;-54
2023/06/14 10:21:08;;;;;;;2.58;1.38;;;25.20;68.90;;;;;;5053954;28;20061;-57
2023/06/14 10:23:40;;;;;;;2.58;1.48;;;25.00;68.20;;;;;;5050522;28;20132;-57
2023/06/14 10:26:05;;;;;;;3.47;1.58;;;24.80;68.10;;;;;;5055624;28;20131;-56
2023/06/14 10:28:32;;;;;;;3.92;1.45;;;25.00;68.50;;;;;;5051425;28;20072;-56
2023/06/14 10:31:08;;;;;;;3.50;1.70;;;24.70;67.20;;;;;;5052790;28;20036;-56
2023/06/14 10:34:00;;;;;;;2.38;1.50;;;24.70;67.40;;;;;;5052213;28;20159;-56
2023/06/14 10:36:27;;;;;;;4.88;1.50;;;24.90;67.70;;;;;;5046672;28;20132;-54
2023/06/14 10:39:06;;;;;;;3.22;1.40;;;24.80;67.30;;;;;;5054083;28;20049;-53
2023/06/14 10:41:36;;;;;;;3.33;1.60;;;24.90;69.30;;;;;;5056943;28;20040;-52
2023/06/14 10:44:13;;;;;;;4.25;1.80;;;24.90;68.50;;;;;;5065407;28;20489;-56
2023/06/14 10:46:51;;;;;;;3.30;1.88;;;25.10;68.70;;;;;;5060579;28;20123;-54
2023/06/14 10:49:38;;;;;;;3.08;1.60;;;25.10;69.10;;;;;;5053582;28;20057;-56
2023/06/14 10:52:06;;;;;;;2.45;1.60;;;24.90;68.10;;;;;;5068436;28;20047;-56
2023/06/14 10:54:32;;;;;;;1.98;1.20;;;25.00;69.10;;;;;;5065239;28;20405;-51
2023/06/14 10:56:59;;;;;;;2.20;1.55;;;24.90;68.70;;;;;;5066337;28;20036;-51
2023/06/14 10:59:24;;;;;;;4.75;1.50;;;24.90;68.60;;;;;;5058156;28;20526;-53
2023/06/14 11:02:45;;;;;;;3.65;1.30;;;24.80;68.20;;;;;;5070794;28;20040;-53
2023/06/14 11:05:14;;;;;;;1.75;1.50;;;24.70;68.10;;;;;;4991756;28;20541;-51
2023/06/14 11:08:04;;;;;;;1.50;1.40;;;24.70;67.80;;;;;;4994154;28;20065;-52
2023/06/14 11:10:30;;;;;;;4.20;1.80;;;24.70;67.60;;;;;;4993685;28;20077;-54
2023/06/14 11:12:56;;;;;;;4.13;1.30;;;24.80;68.00;;;;;;5003547;28;20053;-54
2023/06/14 11:15:31;;;;;;;4.32;1.95;;;24.90;67.60;;;;;;4992820;28;20050;-57
2023/06/14 11:17:57;;;;;;;2.50;1.30;;;24.70;67.30;;;;;;4993871;28;20218;-56
2023/06/14 11:20:27;;;;;;;3.90;1.45;;;24.70;67.30;;;;;;4993359;28;20093;-55
2023/06/14 11:22:53;;;;;;;3.28;1.27;;;24.80;68.10;;;;;;4994182;28;20507;-55
2023/06/14 11:25:19;;;;;;;3.10;1.60;;;24.70;67.70;;;;;;5000765;28;20491;-57
2023/06/14 11:27:45;;;;;;;3.17;1.50;;;24.70;68.10;;;;;;4993715;28;20085;-57
2023/06/14 11:30:11;;;;;;;4.80;1.63;;;24.70;68.80;;;;;;4994023;28;20046;-57
2023/06/14 11:32:37;;;;;;;1.73;1.30;;;24.80;69.20;;;;;;4991988;28;20042;-58
2023/06/14 11:35:07;;;;;;;2.40;1.38;;;24.70;68.50;;;;;;4992002;28;20161;-57
2023/06/14 11:37:33;;;;;;;2.47;1.70;;;24.90;69.20;;;;;;4979944;28;20222;-57
2023/06/14 11:40:04;;;;;;;3.70;1.60;;;25.10;67.90;;;;;;5026578;28;20151;-57
2023/06/14 11:42:30;;;;;;;2.55;1.50;;;25.00;68.20;;;;;;5051924;28;20055;-57
2023/06/14 11:44:56;;;;;;;2.55;1.75;;;25.00;67.90;;;;;;5054752;28;20060;-56
2023/06/14 11:47:30;;;;;;;2.03;1.40;;;25.20;68.60;;;;;;5042493;28;20045;-57
2023/06/14 11:49:58;;;;;;;3.38;1.83;;;25.40;69.30;;;;;;5053196;28;20045;-57
2023/06/14 11:52:23;;;;;;;;;;;25.70;69.90;;;;;;5052454;28;20041;-56
2023/06/14 11:54:49;;;;;;;2.70;1.23;;;25.80;69.10;;;;;;5048634;28;19928;-55
2023/06/14 11:57:17;;;;;;;4.75;1.60;;;25.90;69.20;;;;;;5093020;22;20059;-47
2023/06/14 11:59:44;;;;;;;3.95;1.52;;;25.90;68.80;;;;;;5093651;28;20497;-43
2023/06/14 12:02:13;;;;;;;2.72;1.70;;;25.80;69.50;;;;;;5075936;28;20047;-45
2023/06/14 12:04:41;;;;;;;2.80;1.50;;;25.90;68.40;;;;;;5093515;28;20044;-48
2023/06/14 12:07:19;;;;;;;4.25;1.90;;;25.90;68.60;;;;;;5092025;28;20044;-47
2023/06/14 12:09:54;;;;;;;3.33;1.35;;;25.70;68.20;;;;;;5094150;28;20048;-45
2023/06/14 12:12:27;;;;;;;2.25;1.60;;;25.50;68.20;;;;;;5092780;28;20048;-45
2023/06/14 12:14:55;;;;;;;2.22;1.50;;;25.60;68.50;;;;;;5083901;28;20098;-43
2023/06/14 12:17:22;;;;;;;1.88;1.40;;;25.50;69.40;;;;;;5084951;28;20044;-44
2023/06/14 12:19:49;;;;;;;1.52;1.42;;;25.70;69.20;;;;;;5093645;28;20044;-44
2023/06/14 12:22:16;;;;;;;3.20;1.60;;;25.80;69.50;;;;;;5093337;28;20552;-45
2023/06/14 12:24:45;;;;;;;2.28;1.50;;;25.60;68.80;;;;;;5093044;28;20044;-44
2023/06/14 12:27:15;;;;;;;3.33;1.70;;;25.60;68.70;;;;;;5084169;28;20040;-44
2023/06/14 12:29:45;;;;;;;2.92;1.50;;;25.70;68.90;;;;;;5088460;28;20070;-46
2023/06/14 12:32:11;;;;;;;5.55;1.90;;;25.50;68.30;;;;;;5072184;28;20047;-45
2023/06/14 12:34:36;;;;;;;2.58;1.38;;;25.40;68.60;;;;;;5091099;28;20040;-45
2023/06/14 12:37:03;;;;;;;2.25;1.40;;;25.70;69.30;;;;;;5092622;28;20047;-45
2023/06/14 12:39:31;;;;;;;6.57;1.70;;;25.50;68.90;;;;;;5092616;28;20047;-45
2023/06/14 12:41:57;;;;;;;1.67;1.58;;;25.70;69.00;;;;;;5093313;28;20054;-46
2023/06/14 12:44:23;;;;;;;1.83;1.60;;;25.90;69.70;;;;;;5089010;28;20032;-45
2023/06/14 12:46:51;;;;;;;4.63;1.60;;;26.10;69.20;;;;;;5092747;28;20051;-45
2023/06/14 12:49:17;;;;;;;7.32;1.85;;;26.30;68.80;;;;;;5077741;28;20055;-47
2023/06/14 12:51:43;;;;;;;2.10;1.40;;;26.10;68.40;;;;;;5074470;28;20048;-45